createdAt,value
2019-03-30T00:00:51.972Z,7.25
2019-03-30T00:03:18.541Z,7.36
2019-03-30T00:05:45.237Z,7.47
2019-03-30T00:08:11.811Z,7.26
2019-03-30T00:10:38.570Z,7.09
2019-03-30T00:13:05.175Z,7.19
2019-03-30T00:15:31.851Z,7.36
2019-03-30T00:17:58.646Z,7.30
2019-03-30T00:20:25.196Z,7.29
2019-03-30T00:22:52.885Z,7.45
2019-03-30T00:25:19.565Z,7.36
2019-03-30T00:27:46.246Z,7.39
2019-03-30T00:30:13.274Z,7.32
2019-03-30T00:32:39.953Z,7.32
2019-03-30T00:35:06.955Z,7.31
2019-03-30T00:37:35.035Z,7.24
2019-03-30T00:40:02.632Z,7.24
2019-03-30T00:42:29.236Z,7.41
2019-03-30T00:44:55.833Z,7.56
2019-03-30T00:47:22.399Z,7.76
2019-03-30T00:49:50.195Z,7.72
2019-03-30T00:52:17.203Z,7.87
2019-03-30T00:54:43.878Z,7.75
2019-03-30T00:57:10.528Z,7.75
2019-03-30T00:59:37.360Z,8.11
2019-03-30T01:02:04.151Z,8.52
2019-03-30T01:04:30.994Z,8.68
2019-03-30T01:06:57.628Z,8.83
2019-03-30T01:09:24.291Z,8.99
2019-03-30T01:11:51.069Z,9.06
2019-03-30T01:14:18.266Z,9.08
2019-03-30T01:16:45.015Z,9.12
2019-03-30T01:19:11.673Z,8.44
2019-03-30T01:21:38.310Z,8.26
2019-03-30T01:24:06.954Z,8.41
2019-03-30T01:26:33.523Z,8.30
2019-03-30T01:29:00.103Z,8.46
2019-03-30T01:31:26.757Z,8.42
2019-03-30T01:33:53.367Z,8.53
2019-03-30T01:36:20.117Z,8.75
2019-03-30T01:38:47.189Z,9.03
2019-03-30T01:41:13.845Z,9.13
2019-03-30T01:43:40.531Z,9.21
2019-03-30T01:46:07.066Z,9.28
2019-03-30T01:48:33.664Z,8.62
2019-03-30T01:51:00.276Z,8.42
2019-03-30T01:53:26.866Z,8.26
2019-03-30T01:55:53.523Z,8.40
2019-03-30T01:58:20.163Z,8.51
2019-03-30T02:00:46.867Z,8.79
2019-03-30T02:03:13.710Z,8.83
2019-03-30T02:05:40.419Z,8.48
2019-03-30T02:08:07.013Z,8.46
2019-03-30T02:10:38.800Z,8.41
2019-03-30T02:13:05.638Z,8.51
2019-03-30T02:15:32.419Z,8.57
2019-03-30T02:17:59.044Z,8.59
2019-03-30T02:20:31.359Z,8.68
2019-03-30T02:22:57.947Z,8.76
2019-03-30T02:25:24.621Z,8.92
2019-03-30T02:28:47.526Z,8.95
2019-03-30T02:31:15.393Z,9.10
2019-03-30T02:33:41.986Z,9.26
2019-03-30T02:36:08.799Z,9.34
2019-03-30T02:38:35.450Z,9.23
2019-03-30T02:41:02.246Z,9.36
2019-03-30T02:43:28.837Z,9.23
2019-03-30T02:45:55.395Z,9.32
2019-03-30T02:48:21.944Z,9.24
2019-03-30T02:50:50.617Z,9.17
2019-03-30T02:53:17.061Z,9.27
2019-03-30T02:55:43.785Z,9.26
2019-03-30T02:58:10.397Z,9.53
2019-03-30T03:00:37.392Z,9.61
2019-03-30T03:03:04.133Z,9.70
2019-03-30T03:05:30.791Z,9.69
2019-03-30T03:07:57.546Z,9.65
2019-03-30T03:10:24.471Z,9.68
2019-03-30T03:12:52.240Z,9.78
2019-03-30T03:15:19.001Z,9.68
2019-03-30T03:17:46.236Z,9.77
2019-03-30T03:20:13.218Z,9.64
2019-03-30T03:22:39.829Z,9.71
2019-03-30T03:25:07.532Z,9.72
2019-03-30T03:27:34.377Z,9.75
2019-03-30T03:30:01.470Z,9.71
2019-03-30T03:32:28.442Z,9.85
2019-03-30T03:34:55.197Z,9.66
2019-03-30T03:37:21.797Z,9.64
2019-03-30T03:39:48.409Z,9.65
2019-03-30T03:42:15.005Z,9.80
2019-03-30T03:44:41.617Z,9.77
2019-03-30T03:47:08.301Z,9.78
2019-03-30T03:49:34.841Z,9.81
2019-03-30T03:52:02.430Z,9.75
2019-03-30T03:54:31.692Z,9.72
2019-03-30T03:56:58.985Z,9.70
2019-03-30T03:59:26.869Z,9.81
2019-03-30T04:01:55.288Z,9.80
2019-03-30T04:04:25.946Z,9.80
2019-03-30T04:06:58.206Z,9.81
2019-03-30T04:09:29.123Z,9.59
2019-03-30T04:11:57.780Z,9.58
2019-03-30T04:14:25.278Z,9.68
2019-03-30T04:16:51.937Z,9.61
2019-03-30T04:19:18.710Z,9.66
2019-03-30T04:21:45.426Z,9.63
2019-03-30T04:24:12.042Z,9.67
2019-03-30T04:26:39.808Z,9.76
2019-03-30T04:29:06.384Z,9.74
2019-03-30T04:31:33.142Z,9.71
2019-03-30T04:34:03.125Z,9.69
2019-03-30T04:36:29.766Z,9.62
2019-03-30T04:38:56.359Z,9.64
2019-03-30T04:41:23.005Z,9.68
2019-03-30T04:43:49.585Z,9.77
2019-03-30T04:46:16.196Z,9.71
2019-03-30T04:48:42.756Z,9.64
2019-03-30T04:51:09.365Z,9.81
2019-03-30T04:53:35.993Z,9.76
2019-03-30T04:56:03.177Z,9.71
2019-03-30T04:58:29.732Z,9.81
2019-03-30T05:00:56.351Z,9.82
2019-03-30T05:03:23.008Z,9.94
2019-03-30T05:05:49.661Z,9.87
2019-03-30T05:08:17.391Z,9.96
2019-03-30T05:10:44.008Z,9.93
2019-03-30T05:13:10.573Z,9.81
2019-03-30T05:15:37.284Z,9.79
2019-03-30T05:18:03.947Z,9.89
2019-03-30T05:20:30.609Z,9.96
2019-03-30T05:22:58.272Z,10.01
2019-03-30T05:25:24.873Z,10.05
2019-03-30T05:27:51.640Z,9.97
2019-03-30T05:30:18.248Z,9.84
2019-03-30T05:32:45.043Z,9.97
2019-03-30T05:35:11.848Z,10.03
2019-03-30T05:37:38.509Z,9.94
2019-03-30T05:40:06.804Z,10.04
2019-03-30T05:42:33.441Z,10.05
2019-03-30T05:45:00.053Z,10.07
2019-03-30T05:47:27.813Z,10.18
2019-03-30T05:49:54.391Z,10.13
2019-03-30T05:52:26.820Z,10.18
2019-03-30T05:54:49.510Z,10.19
2019-03-30T05:57:16.121Z,10.17
2019-03-30T05:59:42.669Z,9.96
2019-03-30T06:02:09.227Z,10.15
2019-03-30T06:04:35.945Z,10.27
2019-03-30T06:07:02.865Z,9.99
2019-03-30T06:09:29.454Z,10.14
2019-03-30T06:11:56.071Z,9.99
2019-03-30T06:14:22.648Z,10.02
2019-03-30T06:16:49.195Z,10.04
2019-03-30T06:19:15.766Z,10.05
2019-03-30T06:21:42.347Z,10.23
2019-03-30T06:24:09.573Z,10.12
2019-03-30T06:26:36.291Z,10.22
2019-03-30T06:29:03.093Z,10.32
2019-03-30T06:31:29.838Z,10.39
2019-03-30T06:33:56.652Z,10.29
2019-03-30T06:36:23.494Z,10.47
2019-03-30T06:38:50.438Z,10.36
2019-03-30T06:41:16.999Z,10.59
2019-03-30T06:43:43.562Z,10.50
2019-03-30T06:46:10.970Z,10.50
2019-03-30T06:48:37.630Z,10.47
2019-03-30T06:51:04.316Z,10.31
2019-03-30T06:53:30.966Z,10.53
2019-03-30T06:55:57.532Z,10.41
2019-03-30T06:58:24.169Z,10.40
2019-03-30T07:00:52.442Z,10.41
2019-03-30T07:03:19.341Z,10.50
2019-03-30T07:05:46.200Z,10.68
2019-03-30T07:08:15.078Z,10.33
2019-03-30T07:10:44.926Z,10.36
2019-03-30T07:13:13.348Z,10.36
2019-03-30T07:15:44.973Z,10.42
2019-03-30T07:18:13.711Z,10.76
2019-03-30T07:20:40.442Z,10.71
2019-03-30T07:23:12.358Z,10.90
2019-03-30T07:25:35.791Z,10.79
2019-03-30T07:28:02.721Z,10.66
2019-03-30T07:30:29.423Z,10.85
2019-03-30T07:32:56.373Z,11.02
2019-03-30T07:35:24.197Z,10.55
2019-03-30T07:37:51.044Z,10.66
2019-03-30T07:40:17.916Z,10.62
2019-03-30T07:42:46.363Z,10.96
2019-03-30T07:45:13.639Z,10.93
2019-03-30T07:47:40.706Z,10.97
2019-03-30T07:50:10.033Z,11.09
2019-03-30T07:52:37.482Z,10.97
2019-03-30T07:55:05.448Z,11.16
2019-03-30T07:57:35.891Z,11.45
2019-03-30T08:00:07.197Z,11.29
2019-03-30T08:02:33.856Z,11.45
2019-03-30T08:05:04.696Z,11.51
2019-03-30T08:07:31.605Z,11.22
2019-03-30T08:09:58.172Z,11.39
2019-03-30T08:12:26.031Z,11.26
2019-03-30T08:14:52.637Z,11.26
2019-03-30T08:17:19.552Z,11.21
2019-03-30T08:19:46.228Z,11.32
2019-03-30T08:22:12.995Z,11.15
2019-03-30T08:24:39.565Z,11.44
2019-03-30T08:27:06.158Z,11.03
2019-03-30T08:29:32.842Z,11.37
2019-03-30T08:31:59.428Z,11.43
2019-03-30T08:34:26.100Z,11.00
2019-03-30T08:36:52.712Z,11.10
2019-03-30T08:39:19.266Z,11.14
2019-03-30T08:41:45.874Z,11.51
2019-03-30T08:44:12.418Z,11.53
2019-03-30T08:46:39.005Z,11.54
2019-03-30T08:49:05.801Z,11.37
2019-03-30T08:51:32.462Z,11.43
2019-03-30T08:54:00.367Z,11.55
2019-03-30T08:56:28.122Z,11.83
2019-03-30T08:58:55.081Z,12.15
2019-03-30T09:01:21.710Z,11.77
2019-03-30T09:03:49.406Z,11.78
2019-03-30T09:06:16.082Z,11.72
2019-03-30T09:08:43.143Z,12.05
2019-03-30T09:11:09.712Z,11.95
2019-03-30T09:13:37.702Z,11.76
2019-03-30T09:16:04.498Z,12.06
2019-03-30T09:18:31.207Z,11.73
2019-03-30T09:20:57.839Z,11.85
2019-03-30T09:23:24.460Z,12.32
2019-03-30T09:25:51.160Z,12.47
2019-03-30T09:28:17.734Z,12.48
2019-03-30T09:30:44.622Z,12.47
2019-03-30T09:33:11.360Z,12.52
2019-03-30T09:35:38.214Z,12.45
2019-03-30T09:38:04.964Z,12.70
2019-03-30T09:40:33.655Z,12.73
2019-03-30T09:43:00.344Z,12.92
2019-03-30T09:45:26.964Z,12.84
2019-03-30T09:47:54.777Z,12.52
2019-03-30T09:50:21.578Z,12.60
2019-03-30T09:52:48.387Z,12.33
2019-03-30T09:55:15.343Z,12.75
2019-03-30T09:57:45.781Z,13.25
2019-03-30T10:00:12.790Z,13.18
2019-03-30T10:02:39.562Z,13.22
2019-03-30T10:05:08.916Z,13.26
2019-03-30T10:07:35.889Z,13.02
2019-03-30T10:12:55.850Z,12.38
2019-03-30T10:15:24.342Z,12.50
2019-03-30T10:17:51.016Z,13.13
2019-03-30T10:20:25.394Z,13.50
2019-03-30T10:22:52.184Z,12.97
2019-03-30T10:25:18.813Z,13.06
2019-03-30T10:27:45.913Z,12.96
2019-03-30T10:32:54.620Z,13.30
2019-03-30T10:35:21.414Z,13.28
2019-03-30T10:37:50.263Z,13.63
2019-03-30T10:40:20.732Z,13.48
2019-03-30T10:42:46.283Z,13.17
2019-03-30T10:45:13.307Z,13.11
2019-03-30T10:47:40.101Z,13.70
2019-03-30T10:50:09.096Z,14.08
2019-03-30T10:52:37.079Z,13.75
2019-03-30T10:55:05.633Z,14.32
2019-03-30T10:57:32.390Z,14.89
2019-03-30T11:00:00.385Z,14.80
2019-03-30T11:02:27.944Z,14.76
2019-03-30T11:04:55.741Z,14.90
2019-03-30T11:07:23.528Z,14.55
2019-03-30T11:09:50.644Z,14.93
2019-03-30T11:12:17.924Z,14.70
2019-03-30T11:14:44.909Z,14.37
2019-03-30T11:17:11.606Z,14.31
2019-03-30T11:19:39.071Z,14.55
2019-03-30T11:22:06.130Z,13.52
2019-03-30T11:24:32.730Z,14.15
2019-03-30T11:26:59.360Z,14.29
2019-03-30T11:29:26.128Z,14.51
2019-03-30T11:31:52.719Z,14.25
2019-03-30T11:35:15.807Z,14.67
2019-03-30T11:37:42.445Z,14.30
2019-03-30T11:40:24.302Z,14.58
2019-03-30T11:42:50.901Z,15.00
2019-03-30T11:45:17.815Z,14.66
2019-03-30T11:47:44.585Z,14.81
2019-03-30T11:50:11.492Z,14.80
2019-03-30T11:52:38.112Z,14.71
2019-03-30T11:55:06.044Z,14.86
2019-03-30T11:57:34.885Z,14.66
2019-03-30T12:00:58.118Z,15.14
2019-03-30T12:03:25.038Z,14.78
2019-03-30T12:05:51.957Z,14.89
2019-03-30T12:08:18.532Z,14.94
2019-03-30T12:10:45.180Z,15.27
2019-03-30T12:14:08.536Z,15.39
2019-03-30T12:16:38.068Z,15.23
2019-03-30T12:19:04.814Z,15.28
2019-03-30T12:21:31.414Z,15.04
2019-03-30T12:23:58.312Z,14.87
2019-03-30T12:26:25.461Z,14.79
2019-03-30T12:28:52.120Z,14.84
2019-03-30T12:31:18.867Z,15.26
2019-03-30T12:33:48.566Z,15.27
2019-03-30T12:36:17.430Z,15.56
2019-03-30T12:38:44.338Z,15.61
2019-03-30T12:41:12.225Z,15.05
2019-03-30T12:43:54.401Z,15.40
2019-03-30T12:46:21.361Z,15.57
2019-03-30T12:48:48.240Z,15.50
2019-03-30T12:51:14.880Z,15.33
2019-03-30T12:53:50.423Z,14.97
2019-03-30T12:56:15.403Z,15.28
2019-03-30T12:58:53.506Z,15.47
2019-03-30T13:01:21.426Z,15.47
2019-03-30T13:03:48.073Z,15.15
2019-03-30T13:06:14.906Z,15.49
2019-03-30T13:08:41.500Z,15.42
2019-03-30T13:11:08.167Z,15.70
2019-03-30T13:13:34.986Z,15.86
2019-03-30T13:16:01.739Z,15.93
2019-03-30T13:18:28.329Z,15.85
2019-03-30T13:20:54.907Z,15.90
2019-03-30T13:23:21.579Z,15.61
2019-03-30T13:25:48.183Z,15.29
2019-03-30T13:28:14.830Z,15.61
2019-03-30T13:30:41.690Z,15.41
2019-03-30T13:33:08.326Z,15.24
2019-03-30T13:35:34.989Z,15.77
2019-03-30T13:38:01.616Z,15.85
2019-03-30T13:40:28.357Z,15.97
2019-03-30T13:42:54.945Z,15.69
2019-03-30T13:45:21.735Z,15.63
2019-03-30T13:47:48.410Z,16.00
2019-03-30T13:50:15.360Z,16.03
2019-03-30T13:52:41.988Z,15.97
2019-03-30T13:55:09.152Z,15.42
2019-03-30T13:57:37.191Z,15.77
2019-03-30T14:00:07.167Z,16.09
2019-03-30T14:02:34.285Z,16.19
2019-03-30T14:05:02.792Z,16.34
2019-03-30T14:07:29.875Z,15.87
2019-03-30T14:09:57.234Z,15.90
2019-03-30T14:12:24.362Z,16.29
2019-03-30T14:14:51.543Z,16.29
2019-03-30T14:17:20.144Z,16.28
2019-03-30T14:19:48.521Z,16.00
2019-03-30T14:22:15.600Z,16.16
2019-03-30T14:24:42.697Z,16.22
2019-03-30T14:27:09.573Z,16.24
2019-03-30T14:29:36.671Z,16.49
2019-03-30T14:32:04.435Z,16.11
2019-03-30T14:34:31.380Z,16.34
2019-03-30T14:36:58.457Z,16.43
2019-03-30T14:39:25.793Z,16.42
2019-03-30T14:41:54.051Z,16.01
2019-03-30T14:44:24.352Z,16.08
2019-03-30T14:46:55.387Z,16.18
2019-03-30T14:49:23.077Z,16.11
2019-03-30T14:51:51.077Z,16.27
2019-03-30T14:54:19.525Z,16.33
2019-03-30T14:56:47.925Z,16.33
2019-03-30T14:59:16.215Z,16.21
2019-03-30T15:01:44.664Z,16.35
2019-03-30T15:04:14.569Z,16.08
2019-03-30T15:06:45.968Z,16.36
2019-03-30T15:09:14.321Z,16.36
2019-03-30T15:11:43.578Z,16.37
2019-03-30T15:14:14.852Z,16.00
2019-03-30T15:53:45.815Z,13.35
2019-03-30T15:56:13.061Z,14.14
2019-03-30T15:58:39.987Z,14.42
2019-03-30T16:01:07.247Z,14.51
2019-03-30T16:03:34.426Z,14.47
2019-03-30T16:06:01.413Z,14.50
2019-03-30T16:08:29.567Z,14.49
2019-03-30T16:10:56.605Z,14.36
2019-03-30T16:13:24.027Z,14.40
2019-03-30T16:15:51.310Z,14.43
2019-03-30T16:18:18.411Z,14.44
2019-03-30T16:20:45.909Z,14.38
2019-03-30T16:23:13.060Z,14.42
2019-03-30T16:25:40.058Z,14.18
2019-03-30T16:28:07.292Z,14.14
2019-03-30T16:30:34.782Z,13.96
2019-03-30T16:33:01.998Z,13.98
2019-03-30T16:35:29.065Z,13.80
2019-03-30T16:37:56.058Z,13.81
2019-03-30T16:40:23.023Z,13.73
2019-03-30T16:42:50.734Z,13.71
2019-03-30T16:45:17.612Z,13.56
2019-03-30T16:47:44.671Z,13.62
2019-03-30T16:50:14.585Z,13.43
2019-03-30T16:52:41.570Z,13.15
2019-03-30T16:55:09.031Z,13.17
2019-03-30T16:57:43.305Z,13.24
2019-03-30T17:00:10.040Z,13.13
2019-03-30T17:02:37.407Z,12.86
2019-03-30T17:05:06.495Z,12.58
2019-03-30T17:07:33.618Z,12.39
2019-03-30T17:10:00.593Z,12.23
2019-03-30T17:12:27.682Z,11.94
2019-03-30T17:14:54.579Z,11.80
2019-03-30T17:17:21.607Z,11.64
2019-03-30T17:19:48.597Z,11.36
2019-03-30T17:22:15.483Z,11.14
2019-03-30T17:24:42.393Z,11.08
2019-03-30T17:27:09.811Z,10.98
2019-03-30T17:29:36.957Z,10.80
2019-03-30T17:32:04.118Z,10.71
2019-03-30T17:34:31.192Z,10.69
2019-03-30T17:36:58.058Z,10.48
2019-03-30T17:39:25.043Z,10.44
2019-03-30T17:41:51.907Z,10.39
2019-03-30T17:44:19.209Z,10.27
2019-03-30T17:46:46.612Z,10.25
2019-03-30T17:49:13.558Z,10.12
2019-03-30T17:51:40.638Z,10.07
2019-03-30T17:54:07.630Z,9.89
2019-03-30T17:56:34.741Z,9.81
2019-03-30T17:59:01.958Z,9.70
2019-03-30T18:01:29.186Z,9.67
2019-03-30T18:03:56.067Z,9.60
2019-03-30T18:06:24.042Z,9.54
2019-03-30T18:08:51.541Z,9.55
2019-03-30T18:11:18.480Z,9.36
2019-03-30T18:13:45.489Z,9.18
2019-03-30T18:16:12.423Z,9.17
2019-03-30T18:18:39.496Z,9.14
2019-03-30T18:21:06.523Z,9.05
2019-03-30T18:23:33.155Z,9.06
2019-03-30T18:25:59.899Z,9.15
2019-03-30T18:28:27.533Z,9.13
2019-03-30T18:30:54.561Z,9.17
2019-03-30T18:33:23.508Z,9.06
2019-03-30T18:35:51.183Z,9.14
2019-03-30T18:38:18.798Z,9.05
2019-03-30T18:40:46.183Z,9.06
2019-03-30T18:43:13.097Z,9.08
2019-03-30T18:45:39.667Z,9.21
2019-03-30T18:48:12.622Z,9.08
2019-03-30T18:50:40.794Z,8.77
2019-03-30T18:53:08.246Z,8.64
2019-03-30T18:55:34.966Z,8.54
2019-03-30T18:58:01.825Z,8.61
2019-03-30T19:00:29.750Z,8.48
2019-03-30T19:03:00.059Z,8.47
2019-03-30T19:05:26.885Z,8.44
2019-03-30T19:07:53.644Z,8.54
2019-03-30T19:10:21.646Z,8.32
2019-03-30T19:12:48.515Z,8.07
2019-03-30T19:15:15.379Z,8.15
2019-03-30T19:17:42.045Z,8.09
2019-03-30T19:20:09.186Z,7.99
2019-03-30T19:22:35.820Z,7.80
2019-03-30T19:25:06.694Z,7.82
2019-03-30T19:27:34.681Z,7.78
2019-03-30T19:30:03.536Z,7.84
2019-03-30T19:32:30.981Z,7.82
2019-03-30T19:34:57.837Z,7.68
2019-03-30T19:37:24.847Z,7.55
2019-03-30T19:39:52.132Z,7.48
2019-03-30T19:42:18.967Z,7.40
2019-03-30T19:44:46.478Z,7.39
2019-03-30T19:47:13.784Z,7.44
2019-03-30T19:49:41.178Z,7.55
2019-03-30T19:52:08.554Z,7.61
2019-03-30T19:54:35.471Z,7.43
2019-03-30T19:57:02.425Z,7.49
2019-03-30T19:59:29.726Z,7.30
2019-03-30T20:01:59.017Z,7.33
2019-03-30T20:04:26.159Z,7.30
2019-03-30T20:06:53.905Z,7.25
2019-03-30T20:09:21.312Z,7.29
2019-03-30T20:11:48.509Z,7.26
2019-03-30T20:14:15.622Z,7.17
2019-03-30T20:16:43.673Z,7.18
2019-03-30T20:19:12.469Z,7.02
2019-03-30T20:21:39.727Z,6.92
2019-03-30T20:24:06.690Z,6.90
2019-03-30T20:26:33.733Z,6.88
2019-03-30T20:29:00.552Z,6.66
2019-03-30T20:31:27.236Z,6.71
2019-03-30T20:33:53.810Z,6.71
2019-03-30T20:36:20.813Z,6.51
2019-03-30T20:38:47.654Z,6.61
2019-03-30T20:41:14.647Z,6.67
2019-03-30T20:43:41.408Z,6.64
2019-03-30T20:46:07.958Z,6.59
2019-03-30T20:48:35.849Z,6.36
2019-03-30T20:51:02.482Z,6.30
2019-03-30T20:53:29.294Z,6.43
2019-03-30T20:55:56.331Z,6.41
2019-03-30T20:58:22.986Z,6.44
2019-03-30T21:00:49.833Z,6.38
2019-03-30T21:03:16.496Z,6.44
2019-03-30T21:05:43.121Z,6.27
2019-03-30T21:08:10.490Z,6.21
2019-03-30T21:10:37.181Z,6.32
2019-03-30T21:13:04.118Z,6.36
2019-03-30T21:15:30.779Z,6.17
2019-03-30T21:17:57.684Z,6.01
2019-03-30T21:20:24.355Z,6.08
2019-03-30T21:22:50.946Z,6.18
2019-03-30T21:25:17.696Z,6.26
2019-03-30T21:27:44.347Z,6.27
2019-03-30T21:30:12.309Z,6.39
2019-03-30T21:32:39.212Z,6.25
2019-03-30T21:35:06.442Z,6.27
2019-03-30T21:37:33.328Z,6.17
2019-03-30T21:39:59.971Z,6.12
2019-03-30T21:42:27.889Z,6.07
2019-03-30T21:44:54.661Z,6.09
2019-03-30T21:47:21.257Z,6.16
2019-03-30T21:49:48.200Z,6.09
2019-03-30T21:52:14.823Z,6.07
2019-03-30T21:54:43.369Z,6.07
2019-03-30T21:57:09.927Z,5.97
2019-03-30T21:59:36.740Z,5.87
2019-03-30T22:02:03.442Z,5.85
2019-03-30T22:04:31.117Z,5.92
2019-03-30T22:06:57.946Z,5.81
2019-03-30T22:09:25.156Z,5.77
2019-03-30T22:11:51.844Z,5.79
2019-03-30T22:14:18.757Z,5.82
2019-03-30T22:16:46.443Z,5.82
2019-03-30T22:19:13.049Z,5.67
2019-03-30T22:21:39.788Z,5.70
2019-03-30T22:24:06.488Z,5.60
2019-03-30T22:26:33.049Z,5.50
2019-03-30T22:29:00.851Z,5.64
2019-03-30T22:31:29.463Z,5.66
2019-03-30T22:33:56.067Z,5.58
2019-03-30T22:36:22.906Z,5.56
2019-03-30T22:38:49.509Z,5.64
2019-03-30T22:41:16.224Z,5.58
2019-03-30T22:43:43.895Z,5.53
2019-03-30T22:46:11.806Z,5.39
2019-03-30T22:48:38.360Z,5.52
2019-03-30T22:51:04.965Z,5.38
2019-03-30T22:53:31.541Z,5.56
2019-03-30T22:55:58.344Z,5.46
2019-03-30T22:58:25.059Z,5.46
2019-03-30T23:00:57.137Z,5.42
2019-03-30T23:03:24.938Z,5.31
2019-03-30T23:05:51.660Z,5.28
2019-03-30T23:08:18.307Z,5.36
2019-03-30T23:10:44.984Z,5.21
2019-03-30T23:13:13.628Z,5.18
2019-03-30T23:15:40.322Z,5.11
2019-03-30T23:18:06.949Z,5.15
2019-03-30T23:20:33.615Z,5.07
2019-03-30T23:23:00.210Z,5.13
2019-03-30T23:25:26.784Z,5.16
2019-03-30T23:27:53.509Z,5.24
2019-03-30T23:30:20.154Z,5.17
2019-03-30T23:32:46.702Z,5.13
2019-03-30T23:35:16.442Z,5.11
2019-03-30T23:37:43.043Z,4.95
2019-03-30T23:40:09.833Z,5.15
2019-03-30T23:42:36.448Z,5.08
2019-03-30T23:45:04.755Z,5.07
2019-03-30T23:47:32.581Z,5.05
2019-03-30T23:49:59.184Z,4.93
2019-03-30T23:52:25.694Z,5.01
2019-03-30T23:54:52.264Z,4.96
2019-03-30T23:57:18.825Z,5.05
2019-03-30T23:59:45.473Z,4.84
